sensor_id;sensor_type;location;lat;lon;timestamp;P1;durP1;ratioP1;P2;durP2;ratioP2
85705;SDS011;76142;52.376;9.712;2024-03-02T00:02:24;21.25;;;11.50;;
85705;SDS011;76142;52.376;9.712;2024-03-02T00:04:50;19.52;;;11.07;;
85705;SDS011;76142;52.376;9.712;2024-03-02T00:07:16;24.02;;;12.23;;
85705;SDS011;76142;52.376;9.712;2024-03-02T00:09:42;22.08;;;12.35;;
85705;SDS011;76142;52.376;9.712;2024-03-02T00:12:10;22.40;;;12.50;;
85705;SDS011;76142;52.376;9.712;2024-03-02T00:14:40;23.70;;;11.73;;
85705;SDS011;76142;52.376;9.712;2024-03-02T00:17:08;22.00;;;11.77;;
85705;SDS011;76142;52.376;9.712;2024-03-02T00:19:48;23.40;;;12.35;;
85705;SDS011;76142;52.376;9.712;2024-03-02T00:22:14;23.08;;;12.50;;
85705;SDS011;76142;52.376;9.712;2024-03-02T00:24:39;22.45;;;12.20;;
85705;SDS011;76142;52.376;9.712;2024-03-02T00:27:05;25.95;;;12.13;;
85705;SDS011;76142;52.376;9.712;2024-03-02T00:29:32;23.25;;;12.90;;
85705;SDS011;76142;52.376;9.712;2024-03-02T00:32:00;21.83;;;12.60;;
85705;SDS011;76142;52.376;9.712;2024-03-02T00:34:26;23.48;;;13.55;;
85705;SDS011;76142;52.376;9.712;2024-03-02T00:36:52;23.98;;;13.20;;
85705;SDS011;76142;52.376;9.712;2024-03-02T00:39:17;25.17;;;13.32;;
85705;SDS011;76142;52.376;9.712;2024-03-02T00:41:43;23.30;;;13.35;;
85705;SDS011;76142;52.376;9.712;2024-03-02T00:44:12;24.35;;;13.57;;
85705;SDS011;76142;52.376;9.712;2024-03-02T00:46:38;27.30;;;13.93;;
85705;SDS011;76142;52.376;9.712;2024-03-02T00:51:36;26.98;;;13.75;;
85705;SDS011;76142;52.376;9.712;2024-03-02T00:54:04;29.02;;;13.63;;
85705;SDS011;76142;52.376;9.712;2024-03-02T00:56:30;29.00;;;14.23;;
85705;SDS011;76142;52.376;9.712;2024-03-02T00:58:58;27.95;;;14.05;;
85705;SDS011;76142;52.376;9.712;2024-03-02T01:01:24;27.92;;;14.13;;
85705;SDS011;76142;52.376;9.712;2024-03-02T01:03:49;26.50;;;14.43;;
85705;SDS011;76142;52.376;9.712;2024-03-02T01:06:16;35.50;;;16.02;;
85705;SDS011;76142;52.376;9.712;2024-03-02T01:08:42;26.85;;;14.60;;
85705;SDS011;76142;52.376;9.712;2024-03-02T01:11:08;29.70;;;14.68;;
85705;SDS011;76142;52.376;9.712;2024-03-02T01:13:34;30.45;;;15.10;;
85705;SDS011;76142;52.376;9.712;2024-03-02T01:16:00;28.85;;;14.35;;
85705;SDS011;76142;52.376;9.712;2024-03-02T01:18:27;34.72;;;15.45;;
85705;SDS011;76142;52.376;9.712;2024-03-02T01:20:53;31.25;;;15.40;;
85705;SDS011;76142;52.376;9.712;2024-03-02T01:23:23;27.90;;;14.85;;
85705;SDS011;76142;52.376;9.712;2024-03-02T01:25:49;28.58;;;15.32;;
85705;SDS011;76142;52.376;9.712;2024-03-02T01:28:15;30.80;;;15.80;;
85705;SDS011;76142;52.376;9.712;2024-03-02T01:30:42;29.83;;;15.18;;
85705;SDS011;76142;52.376;9.712;2024-03-02T01:33:08;30.17;;;14.60;;
85705;SDS011;76142;52.376;9.712;2024-03-02T01:35:34;27.40;;;14.93;;
85705;SDS011;76142;52.376;9.712;2024-03-02T01:38:01;30.40;;;15.95;;
85705;SDS011;76142;52.376;9.712;2024-03-02T01:40:27;28.15;;;15.10;;
85705;SDS011;76142;52.376;9.712;2024-03-02T01:42:53;32.75;;;15.95;;
85705;SDS011;76142;52.376;9.712;2024-03-02T01:45:19;27.77;;;14.50;;
85705;SDS011;76142;52.376;9.712;2024-03-02T01:47:45;31.50;;;15.73;;
85705;SDS011;76142;52.376;9.712;2024-03-02T01:50:12;32.05;;;15.77;;
85705;SDS011;76142;52.376;9.712;2024-03-02T01:52:38;31.08;;;14.90;;
85705;SDS011;76142;52.376;9.712;2024-03-02T01:55:04;31.88;;;15.02;;
85705;SDS011;76142;52.376;9.712;2024-03-02T01:57:31;29.70;;;15.70;;
85705;SDS011;76142;52.376;9.712;2024-03-02T01:59:57;29.33;;;14.82;;
85705;SDS011;76142;52.376;9.712;2024-03-02T02:02:23;29.85;;;15.23;;
85705;SDS011;76142;52.376;9.712;2024-03-02T02:04:49;29.20;;;14.63;;
85705;SDS011;76142;52.376;9.712;2024-03-02T02:07:15;31.80;;;15.50;;
85705;SDS011;76142;52.376;9.712;2024-03-02T02:09:41;30.85;;;15.13;;
85705;SDS011;76142;52.376;9.712;2024-03-02T02:12:07;34.63;;;16.75;;
85705;SDS011;76142;52.376;9.712;2024-03-02T02:14:37;32.85;;;16.00;;
85705;SDS011;76142;52.376;9.712;2024-03-02T02:17:05;33.97;;;16.15;;
85705;SDS011;76142;52.376;9.712;2024-03-02T02:19:30;36.30;;;16.60;;
85705;SDS011;76142;52.376;9.712;2024-03-02T02:21:56;34.05;;;16.92;;
85705;SDS011;76142;52.376;9.712;2024-03-02T02:24:22;33.88;;;16.77;;
85705;SDS011;76142;52.376;9.712;2024-03-02T02:26:48;35.70;;;17.17;;
85705;SDS011;76142;52.376;9.712;2024-03-02T02:29:14;33.45;;;17.05;;
85705;SDS011;76142;52.376;9.712;2024-03-02T02:31:40;37.95;;;16.77;;
85705;SDS011;76142;52.376;9.712;2024-03-02T02:34:07;35.80;;;17.60;;
85705;SDS011;76142;52.376;9.712;2024-03-02T02:36:34;38.13;;;17.33;;
85705;SDS011;76142;52.376;9.712;2024-03-02T02:39:04;34.80;;;17.70;;
85705;SDS011;76142;52.376;9.712;2024-03-02T02:41:32;34.80;;;18.15;;
85705;SDS011;76142;52.376;9.712;2024-03-02T02:43:58;35.72;;;17.25;;
85705;SDS011;76142;52.376;9.712;2024-03-02T02:46:24;33.30;;;16.33;;
85705;SDS011;76142;52.376;9.712;2024-03-02T02:48:50;36.50;;;17.75;;
85705;SDS011;76142;52.376;9.712;2024-03-02T02:51:18;34.50;;;17.02;;
85705;SDS011;76142;52.376;9.712;2024-03-02T02:53:44;36.42;;;17.75;;
85705;SDS011;76142;52.376;9.712;2024-03-02T02:56:10;37.92;;;17.30;;
85705;SDS011;76142;52.376;9.712;2024-03-02T02:58:35;38.88;;;17.63;;
85705;SDS011;76142;52.376;9.712;2024-03-02T03:01:01;37.05;;;16.67;;
85705;SDS011;76142;52.376;9.712;2024-03-02T03:03:27;37.25;;;16.95;;
85705;SDS011;76142;52.376;9.712;2024-03-02T03:05:53;34.67;;;17.05;;
85705;SDS011;76142;52.376;9.712;2024-03-02T03:08:19;35.83;;;16.48;;
85705;SDS011;76142;52.376;9.712;2024-03-02T03:10:45;37.63;;;17.00;;
85705;SDS011;76142;52.376;9.712;2024-03-02T03:13:11;37.90;;;17.42;;
85705;SDS011;76142;52.376;9.712;2024-03-02T03:15:37;37.45;;;17.13;;
85705;SDS011;76142;52.376;9.712;2024-03-02T03:18:05;41.05;;;16.88;;
85705;SDS011;76142;52.376;9.712;2024-03-02T03:20:32;37.05;;;16.70;;
85705;SDS011;76142;52.376;9.712;2024-03-02T03:22:59;37.38;;;16.02;;
85705;SDS011;76142;52.376;9.712;2024-03-02T03:25:25;31.48;;;15.68;;
85705;SDS011;76142;52.376;9.712;2024-03-02T03:27:51;33.42;;;15.88;;
85705;SDS011;76142;52.376;9.712;2024-03-02T03:30:17;35.65;;;16.55;;
85705;SDS011;76142;52.376;9.712;2024-03-02T03:32:43;33.70;;;16.20;;
85705;SDS011;76142;52.376;9.712;2024-03-02T03:35:09;33.58;;;15.40;;
85705;SDS011;76142;52.376;9.712;2024-03-02T03:37:35;35.47;;;16.38;;
85705;SDS011;76142;52.376;9.712;2024-03-02T03:40:01;31.23;;;15.02;;
85705;SDS011;76142;52.376;9.712;2024-03-02T03:42:32;32.30;;;15.93;;
85705;SDS011;76142;52.376;9.712;2024-03-02T03:44:57;30.88;;;15.23;;
85705;SDS011;76142;52.376;9.712;2024-03-02T03:47:23;33.80;;;15.30;;
85705;SDS011;76142;52.376;9.712;2024-03-02T03:49:49;32.33;;;15.00;;
85705;SDS011;76142;52.376;9.712;2024-03-02T03:52:14;32.78;;;15.00;;
85705;SDS011;76142;52.376;9.712;2024-03-02T03:54:40;36.38;;;15.35;;
85705;SDS011;76142;52.376;9.712;2024-03-02T03:57:07;31.15;;;15.32;;
85705;SDS011;76142;52.376;9.712;2024-03-02T03:59:33;34.13;;;14.70;;
85705;SDS011;76142;52.376;9.712;2024-03-02T04:01:59;32.80;;;15.00;;
85705;SDS011;76142;52.376;9.712;2024-03-02T04:04:25;34.47;;;15.63;;
85705;SDS011;76142;52.376;9.712;2024-03-02T04:06:50;33.53;;;14.10;;
85705;SDS011;76142;52.376;9.712;2024-03-02T04:09:17;30.55;;;14.13;;
85705;SDS011;76142;52.376;9.712;2024-03-02T04:11:43;31.77;;;14.88;;
85705;SDS011;76142;52.376;9.712;2024-03-02T04:14:09;29.40;;;13.55;;
85705;SDS011;76142;52.376;9.712;2024-03-02T04:16:35;30.60;;;14.68;;
85705;SDS011;76142;52.376;9.712;2024-03-02T04:19:01;28.13;;;14.52;;
85705;SDS011;76142;52.376;9.712;2024-03-02T04:21:26;32.78;;;14.77;;
85705;SDS011;76142;52.376;9.712;2024-03-02T04:23:52;33.03;;;14.70;;
85705;SDS011;76142;52.376;9.712;2024-03-02T04:26:22;29.45;;;13.77;;
85705;SDS011;76142;52.376;9.712;2024-03-02T04:28:48;33.17;;;14.98;;
85705;SDS011;76142;52.376;9.712;2024-03-02T04:31:14;29.67;;;13.88;;
85705;SDS011;76142;52.376;9.712;2024-03-02T04:33:40;31.80;;;14.23;;
85705;SDS011;76142;52.376;9.712;2024-03-02T04:36:07;31.50;;;13.85;;
85705;SDS011;76142;52.376;9.712;2024-03-02T04:38:34;31.65;;;14.45;;
85705;SDS011;76142;52.376;9.712;2024-03-02T04:41:00;32.20;;;14.60;;
85705;SDS011;76142;52.376;9.712;2024-03-02T04:43:26;31.52;;;14.80;;
85705;SDS011;76142;52.376;9.712;2024-03-02T04:45:52;30.45;;;14.35;;
85705;SDS011;76142;52.376;9.712;2024-03-02T04:48:18;36.22;;;15.55;;
85705;SDS011;76142;52.376;9.712;2024-03-02T04:50:44;30.92;;;14.60;;
85705;SDS011;76142;52.376;9.712;2024-03-02T04:53:10;30.05;;;14.18;;
85705;SDS011;76142;52.376;9.712;2024-03-02T04:55:36;31.60;;;14.73;;
85705;SDS011;76142;52.376;9.712;2024-03-02T04:58:05;32.60;;;14.55;;
85705;SDS011;76142;52.376;9.712;2024-03-02T05:00:31;32.35;;;14.75;;
85705;SDS011;76142;52.376;9.712;2024-03-02T05:02:57;33.80;;;14.68;;
85705;SDS011;76142;52.376;9.712;2024-03-02T05:05:23;30.63;;;14.25;;
85705;SDS011;76142;52.376;9.712;2024-03-02T05:07:49;30.17;;;13.80;;
85705;SDS011;76142;52.376;9.712;2024-03-02T05:10:15;33.88;;;14.20;;
85705;SDS011;76142;52.376;9.712;2024-03-02T05:12:41;32.97;;;15.38;;
85705;SDS011;76142;52.376;9.712;2024-03-02T05:15:10;32.55;;;15.15;;
85705;SDS011;76142;52.376;9.712;2024-03-02T05:17:39;36.53;;;15.43;;
85705;SDS011;76142;52.376;9.712;2024-03-02T05:20:08;29.15;;;13.82;;
85705;SDS011;76142;52.376;9.712;2024-03-02T05:22:34;33.65;;;15.20;;
85705;SDS011;76142;52.376;9.712;2024-03-02T05:25:01;35.40;;;15.63;;
85705;SDS011;76142;52.376;9.712;2024-03-02T05:27:27;33.25;;;15.45;;
85705;SDS011;76142;52.376;9.712;2024-03-02T05:29:53;34.03;;;15.68;;
85705;SDS011;76142;52.376;9.712;2024-03-02T05:32:19;41.95;;;17.38;;
85705;SDS011;76142;52.376;9.712;2024-03-02T05:34:44;37.88;;;16.38;;
85705;SDS011;76142;52.376;9.712;2024-03-02T05:37:10;37.17;;;16.55;;
85705;SDS011;76142;52.376;9.712;2024-03-02T05:39:36;33.83;;;16.33;;
85705;SDS011;76142;52.376;9.712;2024-03-02T05:42:02;35.95;;;16.33;;
85705;SDS011;76142;52.376;9.712;2024-03-02T05:44:28;37.83;;;17.45;;
85705;SDS011;76142;52.376;9.712;2024-03-02T05:46:54;35.92;;;16.65;;
85705;SDS011;76142;52.376;9.712;2024-03-02T05:49:20;34.75;;;15.45;;
85705;SDS011;76142;52.376;9.712;2024-03-02T05:51:46;38.20;;;16.70;;
85705;SDS011;76142;52.376;9.712;2024-03-02T05:54:12;34.55;;;16.70;;
85705;SDS011;76142;52.376;9.712;2024-03-02T05:56:38;38.72;;;16.77;;
85705;SDS011;76142;52.376;9.712;2024-03-02T05:59:03;41.20;;;17.83;;
85705;SDS011;76142;52.376;9.712;2024-03-02T06:01:34;39.55;;;16.92;;
85705;SDS011;76142;52.376;9.712;2024-03-02T06:04:00;37.88;;;17.67;;
85705;SDS011;76142;52.376;9.712;2024-03-02T06:06:26;39.65;;;17.60;;
85705;SDS011;76142;52.376;9.712;2024-03-02T06:08:52;42.08;;;19.08;;
85705;SDS011;76142;52.376;9.712;2024-03-02T06:11:21;36.40;;;17.58;;
85705;SDS011;76142;52.376;9.712;2024-03-02T06:13:47;41.25;;;18.48;;
85705;SDS011;76142;52.376;9.712;2024-03-02T06:16:13;38.55;;;18.05;;
85705;SDS011;76142;52.376;9.712;2024-03-02T06:18:38;42.17;;;17.95;;
85705;SDS011;76142;52.376;9.712;2024-03-02T06:21:04;37.92;;;18.63;;
85705;SDS011;76142;52.376;9.712;2024-03-02T06:23:30;43.38;;;19.33;;
85705;SDS011;76142;52.376;9.712;2024-03-02T06:25:56;43.22;;;18.90;;
85705;SDS011;76142;52.376;9.712;2024-03-02T06:28:21;42.90;;;18.50;;
85705;SDS011;76142;52.376;9.712;2024-03-02T06:30:47;44.70;;;18.75;;
85705;SDS011;76142;52.376;9.712;2024-03-02T06:33:13;41.13;;;18.67;;
85705;SDS011;76142;52.376;9.712;2024-03-02T06:35:38;43.17;;;18.98;;
85705;SDS011;76142;52.376;9.712;2024-03-02T06:38:04;43.53;;;19.70;;
85705;SDS011;76142;52.376;9.712;2024-03-02T06:40:30;44.45;;;19.23;;
85705;SDS011;76142;52.376;9.712;2024-03-02T06:42:56;37.70;;;18.20;;
85705;SDS011;76142;52.376;9.712;2024-03-02T06:45:21;37.90;;;18.92;;
85705;SDS011;76142;52.376;9.712;2024-03-02T06:47:47;41.95;;;18.98;;
85705;SDS011;76142;52.376;9.712;2024-03-02T06:50:13;41.85;;;19.63;;
85705;SDS011;76142;52.376;9.712;2024-03-02T06:52:38;40.10;;;18.98;;
85705;SDS011;76142;52.376;9.712;2024-03-02T06:55:04;42.35;;;20.05;;
85705;SDS011;76142;52.376;9.712;2024-03-02T06:57:30;45.40;;;20.00;;
85705;SDS011;76142;52.376;9.712;2024-03-02T06:59:56;42.95;;;20.02;;
85705;SDS011;76142;52.376;9.712;2024-03-02T07:02:26;41.65;;;19.13;;
85705;SDS011;76142;52.376;9.712;2024-03-02T07:04:55;41.85;;;18.73;;
85705;SDS011;76142;52.376;9.712;2024-03-02T07:07:21;42.78;;;18.85;;
85705;SDS011;76142;52.376;9.712;2024-03-02T07:09:47;41.92;;;19.40;;
85705;SDS011;76142;52.376;9.712;2024-03-02T07:12:13;40.35;;;18.08;;
85705;SDS011;76142;52.376;9.712;2024-03-02T07:14:39;45.35;;;18.95;;
85705;SDS011;76142;52.376;9.712;2024-03-02T07:17:23;38.22;;;18.35;;
85705;SDS011;76142;52.376;9.712;2024-03-02T07:19:50;40.45;;;19.20;;
85705;SDS011;76142;52.376;9.712;2024-03-02T07:22:15;38.90;;;18.40;;
85705;SDS011;76142;52.376;9.712;2024-03-02T07:24:44;42.40;;;19.33;;
85705;SDS011;76142;52.376;9.712;2024-03-02T07:27:11;39.42;;;17.75;;
85705;SDS011;76142;52.376;9.712;2024-03-02T07:29:37;41.65;;;19.42;;
85705;SDS011;76142;52.376;9.712;2024-03-02T07:32:04;42.90;;;19.50;;
85705;SDS011;76142;52.376;9.712;2024-03-02T07:34:33;37.78;;;18.50;;
85705;SDS011;76142;52.376;9.712;2024-03-02T07:36:59;41.75;;;19.48;;
85705;SDS011;76142;52.376;9.712;2024-03-02T07:39:25;38.15;;;18.08;;
85705;SDS011;76142;52.376;9.712;2024-03-02T07:41:50;43.97;;;19.25;;
85705;SDS011;76142;52.376;9.712;2024-03-02T07:44:16;39.35;;;18.50;;
85705;SDS011;76142;52.376;9.712;2024-03-02T07:46:44;41.72;;;18.95;;
85705;SDS011;76142;52.376;9.712;2024-03-02T07:49:15;39.38;;;18.15;;
85705;SDS011;76142;52.376;9.712;2024-03-02T07:51:41;39.00;;;18.45;;
85705;SDS011;76142;52.376;9.712;2024-03-02T07:54:07;37.85;;;18.02;;
85705;SDS011;76142;52.376;9.712;2024-03-02T07:56:33;41.40;;;18.27;;
85705;SDS011;76142;52.376;9.712;2024-03-02T07:59:00;34.28;;;16.13;;
85705;SDS011;76142;52.376;9.712;2024-03-02T08:01:29;31.70;;;16.42;;
85705;SDS011;76142;52.376;9.712;2024-03-02T08:03:56;31.20;;;16.88;;
85705;SDS011;76142;52.376;9.712;2024-03-02T08:06:24;35.53;;;16.55;;
85705;SDS011;76142;52.376;9.712;2024-03-02T08:08:52;39.88;;;16.73;;
85705;SDS011;76142;52.376;9.712;2024-03-02T08:11:22;35.15;;;17.02;;
85705;SDS011;76142;52.376;9.712;2024-03-02T08:13:48;32.63;;;16.13;;
85705;SDS011;76142;52.376;9.712;2024-03-02T08:16:14;32.50;;;16.17;;
85705;SDS011;76142;52.376;9.712;2024-03-02T08:18:41;34.95;;;15.68;;
85705;SDS011;76142;52.376;9.712;2024-03-02T08:21:07;35.53;;;17.20;;
85705;SDS011;76142;52.376;9.712;2024-03-02T08:23:33;35.60;;;16.67;;
85705;SDS011;76142;52.376;9.712;2024-03-02T08:25:59;28.63;;;15.30;;
85705;SDS011;76142;52.376;9.712;2024-03-02T08:28:25;32.60;;;16.00;;
85705;SDS011;76142;52.376;9.712;2024-03-02T08:30:51;33.63;;;17.10;;
85705;SDS011;76142;52.376;9.712;2024-03-02T08:33:16;33.42;;;16.27;;
85705;SDS011;76142;52.376;9.712;2024-03-02T08:35:42;33.72;;;15.50;;
85705;SDS011;76142;52.376;9.712;2024-03-02T08:38:08;29.92;;;15.45;;
85705;SDS011;76142;52.376;9.712;2024-03-02T08:40:34;31.95;;;15.65;;
85705;SDS011;76142;52.376;9.712;2024-03-02T08:42:59;31.83;;;16.75;;
85705;SDS011;76142;52.376;9.712;2024-03-02T08:45:25;32.35;;;16.15;;
85705;SDS011;76142;52.376;9.712;2024-03-02T08:47:51;30.27;;;16.13;;
85705;SDS011;76142;52.376;9.712;2024-03-02T08:50:17;33.83;;;16.15;;
85705;SDS011;76142;52.376;9.712;2024-03-02T08:52:43;34.05;;;17.00;;
85705;SDS011;76142;52.376;9.712;2024-03-02T08:55:09;32.65;;;16.30;;
85705;SDS011;76142;52.376;9.712;2024-03-02T08:57:36;34.70;;;16.55;;
85705;SDS011;76142;52.376;9.712;2024-03-02T09:00:02;31.25;;;15.43;;
85705;SDS011;76142;52.376;9.712;2024-03-02T09:02:30;32.45;;;14.93;;
85705;SDS011;76142;52.376;9.712;2024-03-02T09:04:56;36.67;;;16.70;;
85705;SDS011;76142;52.376;9.712;2024-03-02T09:07:22;29.42;;;15.13;;
85705;SDS011;76142;52.376;9.712;2024-03-02T09:09:48;26.73;;;14.55;;
85705;SDS011;76142;52.376;9.712;2024-03-02T09:12:14;30.90;;;14.48;;
85705;SDS011;76142;52.376;9.712;2024-03-02T09:14:40;28.95;;;14.70;;
85705;SDS011;76142;52.376;9.712;2024-03-02T09:17:06;28.83;;;14.18;;
85705;SDS011;76142;52.376;9.712;2024-03-02T09:19:34;28.23;;;14.40;;
85705;SDS011;76142;52.376;9.712;2024-03-02T09:22:00;27.27;;;14.38;;
85705;SDS011;76142;52.376;9.712;2024-03-02T09:24:28;31.73;;;14.75;;
85705;SDS011;76142;52.376;9.712;2024-03-02T09:26:54;28.73;;;14.23;;
85705;SDS011;76142;52.376;9.712;2024-03-02T09:29:20;30.92;;;14.30;;
85705;SDS011;76142;52.376;9.712;2024-03-02T09:31:46;27.15;;;13.27;;
85705;SDS011;76142;52.376;9.712;2024-03-02T09:34:12;27.55;;;14.27;;
85705;SDS011;76142;52.376;9.712;2024-03-02T09:36:39;29.17;;;13.52;;
85705;SDS011;76142;52.376;9.712;2024-03-02T09:39:07;29.35;;;13.65;;
85705;SDS011;76142;52.376;9.712;2024-03-02T09:41:34;28.10;;;13.02;;
85705;SDS011;76142;52.376;9.712;2024-03-02T09:44:04;27.48;;;14.05;;
85705;SDS011;76142;52.376;9.712;2024-03-02T09:46:30;27.73;;;13.43;;
85705;SDS011;76142;52.376;9.712;2024-03-02T09:48:56;25.85;;;13.27;;
85705;SDS011;76142;52.376;9.712;2024-03-02T09:51:22;29.73;;;14.60;;
85705;SDS011;76142;52.376;9.712;2024-03-02T09:53:48;29.63;;;14.15;;
85705;SDS011;76142;52.376;9.712;2024-03-02T09:56:15;28.85;;;14.55;;
85705;SDS011;76142;52.376;9.712;2024-03-02T09:58:41;32.65;;;14.93;;
85705;SDS011;76142;52.376;9.712;2024-03-02T10:01:07;31.20;;;14.85;;
85705;SDS011;76142;52.376;9.712;2024-03-02T10:03:35;30.95;;;14.05;;
85705;SDS011;76142;52.376;9.712;2024-03-02T10:08:47;28.38;;;14.60;;
85705;SDS011;76142;52.376;9.712;2024-03-02T10:14:08;29.58;;;13.77;;
85705;SDS011;76142;52.376;9.712;2024-03-02T10:16:44;28.92;;;14.05;;
85705;SDS011;76142;52.376;9.712;2024-03-02T10:21:55;31.90;;;14.73;;
85705;SDS011;76142;52.376;9.712;2024-03-02T10:24:23;28.55;;;14.55;;
85705;SDS011;76142;52.376;9.712;2024-03-02T10:26:49;36.35;;;15.85;;
85705;SDS011;76142;52.376;9.712;2024-03-02T10:29:15;26.38;;;13.80;;
85705;SDS011;76142;52.376;9.712;2024-03-02T10:31:43;26.40;;;13.00;;
85705;SDS011;76142;52.376;9.712;2024-03-02T10:34:10;32.63;;;14.65;;
85705;SDS011;76142;52.376;9.712;2024-03-02T10:36:37;27.73;;;13.38;;
85705;SDS011;76142;52.376;9.712;2024-03-02T10:39:07;30.98;;;14.88;;
85705;SDS011;76142;52.376;9.712;2024-03-02T10:41:34;30.75;;;14.20;;
85705;SDS011;76142;52.376;9.712;2024-03-02T10:44:01;29.58;;;13.48;;
85705;SDS011;76142;52.376;9.712;2024-03-02T10:46:29;27.73;;;14.07;;
85705;SDS011;76142;52.376;9.712;2024-03-02T10:48:59;32.95;;;14.70;;
85705;SDS011;76142;52.376;9.712;2024-03-02T10:51:26;27.65;;;13.95;;
85705;SDS011;76142;52.376;9.712;2024-03-02T10:53:56;28.88;;;13.88;;
85705;SDS011;76142;52.376;9.712;2024-03-02T10:56:29;26.85;;;13.10;;
85705;SDS011;76142;52.376;9.712;2024-03-02T10:59:16;26.42;;;13.10;;
85705;SDS011;76142;52.376;9.712;2024-03-02T11:01:59;28.30;;;13.23;;
85705;SDS011;76142;52.376;9.712;2024-03-02T11:04:26;23.88;;;11.48;;
85705;SDS011;76142;52.376;9.712;2024-03-02T11:09:29;24.80;;;12.13;;
85705;SDS011;76142;52.376;9.712;2024-03-02T11:15:18;24.92;;;12.32;;
85705;SDS011;76142;52.376;9.712;2024-03-02T11:17:44;22.52;;;11.48;;
85705;SDS011;76142;52.376;9.712;2024-03-02T11:20:11;25.15;;;11.73;;
85705;SDS011;76142;52.376;9.712;2024-03-02T11:22:37;49.80;;;12.23;;
85705;SDS011;76142;52.376;9.712;2024-03-02T11:25:03;21.60;;;10.77;;
85705;SDS011;76142;52.376;9.712;2024-03-02T11:30:16;22.38;;;10.90;;
85705;SDS011;76142;52.376;9.712;2024-03-02T11:32:59;19.05;;;10.13;;
85705;SDS011;76142;52.376;9.712;2024-03-02T11:35:25;25.55;;;11.45;;
85705;SDS011;76142;52.376;9.712;2024-03-02T11:37:54;57.25;;;19.23;;
85705;SDS011;76142;52.376;9.712;2024-03-02T11:40:24;20.77;;;10.63;;
85705;SDS011;76142;52.376;9.712;2024-03-02T11:42:50;26.45;;;10.90;;
85705;SDS011;76142;52.376;9.712;2024-03-02T11:45:16;21.23;;;10.80;;
85705;SDS011;76142;52.376;9.712;2024-03-02T11:47:55;21.33;;;10.07;;
85705;SDS011;76142;52.376;9.712;2024-03-02T11:50:34;18.23;;;9.65;;
85705;SDS011;76142;52.376;9.712;2024-03-02T11:53:02;18.55;;;9.25;;
85705;SDS011;76142;52.376;9.712;2024-03-02T11:55:36;21.38;;;9.05;;
85705;SDS011;76142;52.376;9.712;2024-03-02T11:58:06;14.70;;;8.25;;
85705;SDS011;76142;52.376;9.712;2024-03-02T12:00:32;17.70;;;8.23;;
85705;SDS011;76142;52.376;9.712;2024-03-02T12:03:02;16.77;;;8.48;;
85705;SDS011;76142;52.376;9.712;2024-03-02T12:07:58;15.00;;;7.95;;
85705;SDS011;76142;52.376;9.712;2024-03-02T12:10:26;33.55;;;16.48;;
85705;SDS011;76142;52.376;9.712;2024-03-02T12:12:58;14.88;;;8.00;;
85705;SDS011;76142;52.376;9.712;2024-03-02T12:15:28;16.55;;;8.88;;
85705;SDS011;76142;52.376;9.712;2024-03-02T12:17:56;16.92;;;7.68;;
85705;SDS011;76142;52.376;9.712;2024-03-02T12:20:23;14.00;;;7.68;;
85705;SDS011;76142;52.376;9.712;2024-03-02T12:22:50;14.07;;;7.15;;
85705;SDS011;76142;52.376;9.712;2024-03-02T12:25:19;13.93;;;6.55;;
85705;SDS011;76142;52.376;9.712;2024-03-02T12:27:46;14.27;;;7.30;;
85705;SDS011;76142;52.376;9.712;2024-03-02T12:30:14;16.15;;;7.03;;
85705;SDS011;76142;52.376;9.712;2024-03-02T12:32:45;14.27;;;6.85;;
85705;SDS011;76142;52.376;9.712;2024-03-02T12:35:11;14.35;;;6.95;;
85705;SDS011;76142;52.376;9.712;2024-03-02T12:37:49;15.05;;;6.93;;
85705;SDS011;76142;52.376;9.712;2024-03-02T12:40:17;14.13;;;6.60;;
85705;SDS011;76142;52.376;9.712;2024-03-02T12:42:44;11.70;;;6.45;;
85705;SDS011;76142;52.376;9.712;2024-03-02T12:45:13;15.05;;;6.47;;
85705;SDS011;76142;52.376;9.712;2024-03-02T12:47:39;12.05;;;6.38;;
85705;SDS011;76142;52.376;9.712;2024-03-02T12:50:06;12.50;;;5.82;;
85705;SDS011;76142;52.376;9.712;2024-03-02T12:52:32;12.43;;;5.65;;
85705;SDS011;76142;52.376;9.712;2024-03-02T12:55:02;10.52;;;5.70;;
85705;SDS011;76142;52.376;9.712;2024-03-02T12:57:30;12.27;;;5.28;;
85705;SDS011;76142;52.376;9.712;2024-03-02T13:00:01;10.88;;;4.97;;
85705;SDS011;76142;52.376;9.712;2024-03-02T13:02:39;9.52;;;4.90;;
85705;SDS011;76142;52.376;9.712;2024-03-02T13:05:06;8.43;;;4.15;;
85705;SDS011;76142;52.376;9.712;2024-03-02T13:07:36;7.97;;;4.00;;
85705;SDS011;76142;52.376;9.712;2024-03-02T13:10:04;7.93;;;3.85;;
85705;SDS011;76142;52.376;9.712;2024-03-02T13:12:31;8.73;;;3.50;;
85705;SDS011;76142;52.376;9.712;2024-03-02T13:14:58;8.27;;;3.95;;
85705;SDS011;76142;52.376;9.712;2024-03-02T13:17:24;22.00;;;10.27;;
85705;SDS011;76142;52.376;9.712;2024-03-02T13:19:56;10.38;;;4.15;;
85705;SDS011;76142;52.376;9.712;2024-03-02T13:22:23;8.57;;;4.37;;
85705;SDS011;76142;52.376;9.712;2024-03-02T13:24:50;6.15;;;3.70;;
85705;SDS011;76142;52.376;9.712;2024-03-02T13:27:16;6.95;;;4.05;;
85705;SDS011;76142;52.376;9.712;2024-03-02T13:29:45;7.85;;;4.20;;
85705;SDS011;76142;52.376;9.712;2024-03-02T13:32:12;13.57;;;4.57;;
85705;SDS011;76142;52.376;9.712;2024-03-02T13:34:38;7.55;;;4.03;;
85705;SDS011;76142;52.376;9.712;2024-03-02T13:37:04;10.02;;;4.38;;
85705;SDS011;76142;52.376;9.712;2024-03-02T13:39:30;9.40;;;4.82;;
85705;SDS011;76142;52.376;9.712;2024-03-02T13:41:57;9.45;;;4.35;;
85705;SDS011;76142;52.376;9.712;2024-03-02T13:44:30;7.22;;;3.80;;
85705;SDS011;76142;52.376;9.712;2024-03-02T13:46:56;7.57;;;4.00;;
85705;SDS011;76142;52.376;9.712;2024-03-02T13:49:23;6.85;;;3.60;;
85705;SDS011;76142;52.376;9.712;2024-03-02T13:51:49;7.63;;;3.55;;
85705;SDS011;76142;52.376;9.712;2024-03-02T13:54:15;5.13;;;3.05;;
85705;SDS011;76142;52.376;9.712;2024-03-02T13:56:41;6.10;;;3.33;;
85705;SDS011;76142;52.376;9.712;2024-03-02T13:59:07;7.38;;;3.22;;
85705;SDS011;76142;52.376;9.712;2024-03-02T14:01:33;5.32;;;3.13;;
85705;SDS011;76142;52.376;9.712;2024-03-02T14:03:58;6.13;;;3.35;;
85705;SDS011;76142;52.376;9.712;2024-03-02T14:06:24;5.13;;;3.28;;
85705;SDS011;76142;52.376;9.712;2024-03-02T14:08:52;5.88;;;3.30;;
85705;SDS011;76142;52.376;9.712;2024-03-02T14:11:18;6.47;;;3.53;;
85705;SDS011;76142;52.376;9.712;2024-03-02T14:13:44;5.63;;;3.38;;
85705;SDS011;76142;52.376;9.712;2024-03-02T14:16:14;6.68;;;3.40;;
85705;SDS011;76142;52.376;9.712;2024-03-02T14:18:41;8.20;;;3.80;;
85705;SDS011;76142;52.376;9.712;2024-03-02T14:21:07;5.95;;;3.47;;
85705;SDS011;76142;52.376;9.712;2024-03-02T14:23:33;6.50;;;3.40;;
85705;SDS011;76142;52.376;9.712;2024-03-02T14:25:58;5.50;;;3.10;;
85705;SDS011;76142;52.376;9.712;2024-03-02T14:28:24;4.78;;;2.90;;
85705;SDS011;76142;52.376;9.712;2024-03-02T14:30:50;5.80;;;3.45;;
85705;SDS011;76142;52.376;9.712;2024-03-02T14:33:16;4.90;;;2.97;;
85705;SDS011;76142;52.376;9.712;2024-03-02T14:35:42;5.85;;;3.17;;
85705;SDS011;76142;52.376;9.712;2024-03-02T14:38:10;6.72;;;3.05;;
85705;SDS011;76142;52.376;9.712;2024-03-02T14:40:36;5.32;;;3.10;;
85705;SDS011;76142;52.376;9.712;2024-03-02T14:43:02;6.18;;;3.30;;
85705;SDS011;76142;52.376;9.712;2024-03-02T14:45:28;5.15;;;2.80;;
85705;SDS011;76142;52.376;9.712;2024-03-02T14:47:54;6.40;;;3.33;;